sensor_id;sensor_type;location;lat;lon;timestamp;temperature;humidity
1592;DHT22;789;51.612;7.510;2022-09-16T00:00:57;16.00;1.00
1592;DHT22;789;51.612;7.510;2022-09-16T00:03:25;15.90;1.00
1592;DHT22;789;51.612;7.510;2022-09-16T00:05:52;16.00;1.00
1592;DHT22;789;51.612;7.510;2022-09-16T00:08:21;16.00;1.00
1592;DHT22;789;51.612;7.510;2022-09-16T00:10:48;15.90;1.00
1592;DHT22;789;51.612;7.510;2022-09-16T00:13:16;15.90;1.00
1592;DHT22;789;51.612;7.510;2022-09-16T00:15:44;15.90;1.00
1592;DHT22;789;51.612;7.510;2022-09-16T00:18:11;15.90;1.00
1592;DHT22;789;51.612;7.510;2022-09-16T00:20:44;15.90;1.00
1592;DHT22;789;51.612;7.510;2022-09-16T00:23:11;15.90;1.00
1592;DHT22;789;51.612;7.510;2022-09-16T00:25:39;15.80;1.00
1592;DHT22;789;51.612;7.510;2022-09-16T00:28:06;15.80;1.00
1592;DHT22;789;51.612;7.510;2022-09-16T00:30:33;15.80;1.00
1592;DHT22;789;51.612;7.510;2022-09-16T00:33:00;15.80;1.00
1592;DHT22;789;51.612;7.510;2022-09-16T00:35:26;15.80;1.00
1592;DHT22;789;51.612;7.510;2022-09-16T00:37:53;15.70;1.00
1592;DHT22;789;51.612;7.510;2022-09-16T00:40:20;15.70;1.00
1592;DHT22;789;51.612;7.510;2022-09-16T00:42:48;15.60;1.00
1592;DHT22;789;51.612;7.510;2022-09-16T00:45:17;15.60;1.00
1592;DHT22;789;51.612;7.510;2022-09-16T00:47:49;15.60;1.00
1592;DHT22;789;51.612;7.510;2022-09-16T00:50:20;15.60;1.00
1592;DHT22;789;51.612;7.510;2022-09-16T00:52:49;15.60;1.00
1592;DHT22;789;51.612;7.510;2022-09-16T00:55:20;15.60;1.00
1592;DHT22;789;51.612;7.510;2022-09-16T00:57:51;15.60;1.00
1592;DHT22;789;51.612;7.510;2022-09-16T01:00:18;15.50;1.00
1592;DHT22;789;51.612;7.510;2022-09-16T01:02:46;15.40;1.00
1592;DHT22;789;51.612;7.510;2022-09-16T01:05:15;15.40;1.00
1592;DHT22;789;51.612;7.510;2022-09-16T01:07:44;15.40;1.00
1592;DHT22;789;51.612;7.510;2022-09-16T01:10:12;15.50;1.00
1592;DHT22;789;51.612;7.510;2022-09-16T01:12:40;15.50;1.00
1592;DHT22;789;51.612;7.510;2022-09-16T01:15:10;15.40;1.00
1592;DHT22;789;51.612;7.510;2022-09-16T01:17:49;15.40;1.00
1592;DHT22;789;51.612;7.510;2022-09-16T01:20:52;15.40;1.00
1592;DHT22;789;51.612;7.510;2022-09-16T01:23:46;15.40;1.00
1592;DHT22;789;51.612;7.510;2022-09-16T01:26:50;15.40;1.00
1592;DHT22;789;51.612;7.510;2022-09-16T01:32:30;15.40;1.00
1592;DHT22;789;51.612;7.510;2022-09-16T01:35:04;15.30;1.00
1592;DHT22;789;51.612;7.510;2022-09-16T01:37:44;15.30;1.00
1592;DHT22;789;51.612;7.510;2022-09-16T01:40:18;15.40;1.00
1592;DHT22;789;51.612;7.510;2022-09-16T01:42:53;15.30;1.00
1592;DHT22;789;51.612;7.510;2022-09-16T01:45:29;15.40;1.00
1592;DHT22;789;51.612;7.510;2022-09-16T01:48:09;15.40;1.00
1592;DHT22;789;51.612;7.510;2022-09-16T01:50:41;15.40;1.00
1592;DHT22;789;51.612;7.510;2022-09-16T01:53:14;15.40;1.00
1592;DHT22;789;51.612;7.510;2022-09-16T01:55:48;15.40;1.00
1592;DHT22;789;51.612;7.510;2022-09-16T01:58:22;15.40;1.00
1592;DHT22;789;51.612;7.510;2022-09-16T02:00:55;15.40;1.00
1592;DHT22;789;51.612;7.510;2022-09-16T02:03:27;15.30;1.00
1592;DHT22;789;51.612;7.510;2022-09-16T02:05:58;15.30;1.00
1592;DHT22;789;51.612;7.510;2022-09-16T02:08:30;15.40;1.00
1592;DHT22;789;51.612;7.510;2022-09-16T02:10:59;15.30;1.00
1592;DHT22;789;51.612;7.510;2022-09-16T02:13:31;15.40;1.00
1592;DHT22;789;51.612;7.510;2022-09-16T02:16:03;15.40;1.00
1592;DHT22;789;51.612;7.510;2022-09-16T02:18:34;15.40;1.00
1592;DHT22;789;51.612;7.510;2022-09-16T02:21:05;15.40;1.00
1592;DHT22;789;51.612;7.510;2022-09-16T02:23:36;15.30;1.00
1592;DHT22;789;51.612;7.510;2022-09-16T02:26:05;15.30;1.00
1592;DHT22;789;51.612;7.510;2022-09-16T02:28:37;15.30;1.00
1592;DHT22;789;51.612;7.510;2022-09-16T02:31:06;15.20;1.00
1592;DHT22;789;51.612;7.510;2022-09-16T02:33:37;15.20;1.00
1592;DHT22;789;51.612;7.510;2022-09-16T02:36:07;15.20;1.00
1592;DHT22;789;51.612;7.510;2022-09-16T02:38:38;15.20;1.00
1592;DHT22;789;51.612;7.510;2022-09-16T02:41:06;15.20;1.00
1592;DHT22;789;51.612;7.510;2022-09-16T02:43:39;15.20;1.00
1592;DHT22;789;51.612;7.510;2022-09-16T02:46:13;15.10;1.00
1592;DHT22;789;51.612;7.510;2022-09-16T02:48:51;15.10;1.00
1592;DHT22;789;51.612;7.510;2022-09-16T02:51:26;15.10;1.00
1592;DHT22;789;51.612;7.510;2022-09-16T02:53:58;15.10;1.00
1592;DHT22;789;51.612;7.510;2022-09-16T02:56:29;15.10;1.00
1592;DHT22;789;51.612;7.510;2022-09-16T02:58:57;15.10;1.00
1592;DHT22;789;51.612;7.510;2022-09-16T03:01:25;15.10;1.00
1592;DHT22;789;51.612;7.510;2022-09-16T03:03:54;15.10;1.00
1592;DHT22;789;51.612;7.510;2022-09-16T03:06:23;15.10;1.00
1592;DHT22;789;51.612;7.510;2022-09-16T03:08:51;15.10;1.00
1592;DHT22;789;51.612;7.510;2022-09-16T03:11:29;15.00;1.00
1592;DHT22;789;51.612;7.510;2022-09-16T03:14:10;15.00;1.00
1592;DHT22;789;51.612;7.510;2022-09-16T03:16:45;15.00;1.00
1592;DHT22;789;51.612;7.510;2022-09-16T03:19:22;15.00;1.00
1592;DHT22;789;51.612;7.510;2022-09-16T03:21:58;15.10;1.00
1592;DHT22;789;51.612;7.510;2022-09-16T03:24:35;15.10;1.00
1592;DHT22;789;51.612;7.510;2022-09-16T03:27:08;15.10;1.00
1592;DHT22;789;51.612;7.510;2022-09-16T03:29:37;15.20;1.00
1592;DHT22;789;51.612;7.510;2022-09-16T03:32:13;15.20;1.00
1592;DHT22;789;51.612;7.510;2022-09-16T03:34:47;15.20;1.00
1592;DHT22;789;51.612;7.510;2022-09-16T03:37:17;15.20;1.00
1592;DHT22;789;51.612;7.510;2022-09-16T03:39:48;15.20;1.00
1592;DHT22;789;51.612;7.510;2022-09-16T03:42:18;15.10;1.00
1592;DHT22;789;51.612;7.510;2022-09-16T03:44:45;15.10;1.00
1592;DHT22;789;51.612;7.510;2022-09-16T03:47:12;15.10;1.00
1592;DHT22;789;51.612;7.510;2022-09-16T03:49:38;15.00;1.00
1592;DHT22;789;51.612;7.510;2022-09-16T03:52:07;15.00;1.00
1592;DHT22;789;51.612;7.510;2022-09-16T03:54:35;14.90;1.00
1592;DHT22;789;51.612;7.510;2022-09-16T03:57:02;14.90;1.00
1592;DHT22;789;51.612;7.510;2022-09-16T03:59:29;15.00;1.00
1592;DHT22;789;51.612;7.510;2022-09-16T04:01:56;15.00;1.00
1592;DHT22;789;51.612;7.510;2022-09-16T04:04:22;15.00;1.00
1592;DHT22;789;51.612;7.510;2022-09-16T04:06:49;15.00;1.00
1592;DHT22;789;51.612;7.510;2022-09-16T04:09:17;15.00;1.00
1592;DHT22;789;51.612;7.510;2022-09-16T04:11:44;14.90;1.00
1592;DHT22;789;51.612;7.510;2022-09-16T04:14:11;14.90;1.00
1592;DHT22;789;51.612;7.510;2022-09-16T04:16:38;14.90;1.00
1592;DHT22;789;51.612;7.510;2022-09-16T04:19:04;14.90;1.00
1592;DHT22;789;51.612;7.510;2022-09-16T04:21:31;14.90;1.00
1592;DHT22;789;51.612;7.510;2022-09-16T04:23:58;14.90;1.00
1592;DHT22;789;51.612;7.510;2022-09-16T04:26:26;14.80;1.00
1592;DHT22;789;51.612;7.510;2022-09-16T04:28:53;14.80;1.00
1592;DHT22;789;51.612;7.510;2022-09-16T04:31:20;14.90;1.00
1592;DHT22;789;51.612;7.510;2022-09-16T04:33:47;14.90;1.00
1592;DHT22;789;51.612;7.510;2022-09-16T04:36:15;14.90;1.00
1592;DHT22;789;51.612;7.510;2022-09-16T04:38:43;14.90;1.00
1592;DHT22;789;51.612;7.510;2022-09-16T04:41:13;14.90;1.00
1592;DHT22;789;51.612;7.510;2022-09-16T04:43:41;14.80;1.00
1592;DHT22;789;51.612;7.510;2022-09-16T04:46:08;14.80;1.00
1592;DHT22;789;51.612;7.510;2022-09-16T04:48:35;14.80;1.00
1592;DHT22;789;51.612;7.510;2022-09-16T04:51:03;14.80;1.00
1592;DHT22;789;51.612;7.510;2022-09-16T04:53:31;14.80;1.00
1592;DHT22;789;51.612;7.510;2022-09-16T04:56:05;14.80;1.00
1592;DHT22;789;51.612;7.510;2022-09-16T04:58:33;14.70;1.00
1592;DHT22;789;51.612;7.510;2022-09-16T05:01:05;14.70;1.00
1592;DHT22;789;51.612;7.510;2022-09-16T05:03:37;14.70;1.00
1592;DHT22;789;51.612;7.510;2022-09-16T05:06:05;14.70;1.00
1592;DHT22;789;51.612;7.510;2022-09-16T05:08:32;14.70;1.00
1592;DHT22;789;51.612;7.510;2022-09-16T05:11:03;14.70;1.00
1592;DHT22;789;51.612;7.510;2022-09-16T05:13:30;14.60;1.00
1592;DHT22;789;51.612;7.510;2022-09-16T05:16:00;14.60;1.00
1592;DHT22;789;51.612;7.510;2022-09-16T05:18:29;14.70;1.00
1592;DHT22;789;51.612;7.510;2022-09-16T05:20:57;14.60;1.00
1592;DHT22;789;51.612;7.510;2022-09-16T05:23:24;14.60;1.00
1592;DHT22;789;51.612;7.510;2022-09-16T05:25:52;14.60;1.00
1592;DHT22;789;51.612;7.510;2022-09-16T05:28:18;14.60;1.00
1592;DHT22;789;51.612;7.510;2022-09-16T05:30:45;14.60;1.00
1592;DHT22;789;51.612;7.510;2022-09-16T05:33:12;14.60;1.00
1592;DHT22;789;51.612;7.510;2022-09-16T05:35:40;14.60;1.00
1592;DHT22;789;51.612;7.510;2022-09-16T05:38:07;14.60;1.00
1592;DHT22;789;51.612;7.510;2022-09-16T05:40:34;14.70;1.00
1592;DHT22;789;51.612;7.510;2022-09-16T05:43:01;14.70;1.00
1592;DHT22;789;51.612;7.510;2022-09-16T05:45:28;14.70;1.00
1592;DHT22;789;51.612;7.510;2022-09-16T05:47:54;14.70;1.00
1592;DHT22;789;51.612;7.510;2022-09-16T05:50:21;14.60;1.00
1592;DHT22;789;51.612;7.510;2022-09-16T05:52:49;14.50;1.00
1592;DHT22;789;51.612;7.510;2022-09-16T05:55:16;14.30;1.00
1592;DHT22;789;51.612;7.510;2022-09-16T05:57:43;14.10;1.00
1592;DHT22;789;51.612;7.510;2022-09-16T06:00:11;14.00;1.00
1592;DHT22;789;51.612;7.510;2022-09-16T06:02:38;13.80;1.00
1592;DHT22;789;51.612;7.510;2022-09-16T06:05:05;13.70;1.00
1592;DHT22;789;51.612;7.510;2022-09-16T06:07:32;13.60;1.00
1592;DHT22;789;51.612;7.510;2022-09-16T06:10:00;13.50;1.00
1592;DHT22;789;51.612;7.510;2022-09-16T06:12:27;13.40;1.00
1592;DHT22;789;51.612;7.510;2022-09-16T06:14:54;13.30;1.00
1592;DHT22;789;51.612;7.510;2022-09-16T06:17:20;13.40;1.00
1592;DHT22;789;51.612;7.510;2022-09-16T06:19:47;13.40;1.00
1592;DHT22;789;51.612;7.510;2022-09-16T06:22:14;13.40;1.00
1592;DHT22;789;51.612;7.510;2022-09-16T06:24:41;13.40;1.00
1592;DHT22;789;51.612;7.510;2022-09-16T06:27:09;13.50;1.00
1592;DHT22;789;51.612;7.510;2022-09-16T06:29:36;13.60;1.00
1592;DHT22;789;51.612;7.510;2022-09-16T06:32:05;13.70;1.00
1592;DHT22;789;51.612;7.510;2022-09-16T06:34:32;13.90;1.00
1592;DHT22;789;51.612;7.510;2022-09-16T06:36:59;13.90;1.00
1592;DHT22;789;51.612;7.510;2022-09-16T06:39:25;13.90;1.00
1592;DHT22;789;51.612;7.510;2022-09-16T06:41:52;14.00;1.00
1592;DHT22;789;51.612;7.510;2022-09-16T06:44:20;14.10;1.00
1592;DHT22;789;51.612;7.510;2022-09-16T06:46:47;14.30;1.00
1592;DHT22;789;51.612;7.510;2022-09-16T06:49:14;14.40;1.00
1592;DHT22;789;51.612;7.510;2022-09-16T06:51:41;14.60;1.00
1592;DHT22;789;51.612;7.510;2022-09-16T06:54:09;14.60;1.00
1592;DHT22;789;51.612;7.510;2022-09-16T06:56:37;14.70;1.00
1592;DHT22;789;51.612;7.510;2022-09-16T06:59:05;14.70;1.00
1592;DHT22;789;51.612;7.510;2022-09-16T07:01:34;14.90;1.00
1592;DHT22;789;51.612;7.510;2022-09-16T07:04:03;15.00;1.00
1592;DHT22;789;51.612;7.510;2022-09-16T07:06:31;15.00;1.00
1592;DHT22;789;51.612;7.510;2022-09-16T07:08:58;15.00;1.00
1592;DHT22;789;51.612;7.510;2022-09-16T07:11:25;15.00;1.00
1592;DHT22;789;51.612;7.510;2022-09-16T07:13:52;15.10;1.00
1592;DHT22;789;51.612;7.510;2022-09-16T07:16:21;15.10;1.00
1592;DHT22;789;51.612;7.510;2022-09-16T07:18:52;15.10;1.00
1592;DHT22;789;51.612;7.510;2022-09-16T07:21:21;15.10;1.00
1592;DHT22;789;51.612;7.510;2022-09-16T07:23:53;15.20;1.00
1592;DHT22;789;51.612;7.510;2022-09-16T07:26:21;15.30;1.00
1592;DHT22;789;51.612;7.510;2022-09-16T07:28:51;15.30;1.00
1592;DHT22;789;51.612;7.510;2022-09-16T07:31:19;15.30;1.00
1592;DHT22;789;51.612;7.510;2022-09-16T07:33:49;15.40;1.00
1592;DHT22;789;51.612;7.510;2022-09-16T07:36:20;15.50;1.00
1592;DHT22;789;51.612;7.510;2022-09-16T07:38:48;15.60;1.00
1592;DHT22;789;51.612;7.510;2022-09-16T07:41:17;15.70;1.00
1592;DHT22;789;51.612;7.510;2022-09-16T07:43:45;15.70;1.00
1592;DHT22;789;51.612;7.510;2022-09-16T07:46:13;15.90;1.00
1592;DHT22;789;51.612;7.510;2022-09-16T07:48:42;16.10;1.00
1592;DHT22;789;51.612;7.510;2022-09-16T07:51:11;16.40;1.00
1592;DHT22;789;51.612;7.510;2022-09-16T07:53:40;17.30;1.00
1592;DHT22;789;51.612;7.510;2022-09-16T07:56:09;19.00;1.00
1592;DHT22;789;51.612;7.510;2022-09-16T07:58:37;20.70;1.00
1592;DHT22;789;51.612;7.510;2022-09-16T08:01:05;22.50;1.00
1592;DHT22;789;51.612;7.510;2022-09-16T08:03:32;24.10;1.00
1592;DHT22;789;51.612;7.510;2022-09-16T08:05:59;25.20;1.00
1592;DHT22;789;51.612;7.510;2022-09-16T08:08:26;26.10;1.00
1592;DHT22;789;51.612;7.510;2022-09-16T08:10:55;27.00;1.00
1592;DHT22;789;51.612;7.510;2022-09-16T08:13:22;28.00;1.00
1592;DHT22;789;51.612;7.510;2022-09-16T08:15:49;28.80;1.00
1592;DHT22;789;51.612;7.510;2022-09-16T08:18:16;29.70;1.00
1592;DHT22;789;51.612;7.510;2022-09-16T08:20:43;30.20;1.00
1592;DHT22;789;51.612;7.510;2022-09-16T08:23:09;30.50;1.00
1592;DHT22;789;51.612;7.510;2022-09-16T08:25:37;30.70;1.00
1592;DHT22;789;51.612;7.510;2022-09-16T08:28:05;30.90;1.00
1592;DHT22;789;51.612;7.510;2022-09-16T08:30:37;31.10;1.00
1592;DHT22;789;51.612;7.510;2022-09-16T08:33:04;31.10;1.00
1592;DHT22;789;51.612;7.510;2022-09-16T08:35:30;31.00;1.00
1592;DHT22;789;51.612;7.510;2022-09-16T08:37:58;30.70;1.00
1592;DHT22;789;51.612;7.510;2022-09-16T08:40:25;30.90;1.00
1592;DHT22;789;51.612;7.510;2022-09-16T08:42:59;31.00;1.00
1592;DHT22;789;51.612;7.510;2022-09-16T08:45:31;31.60;1.00
1592;DHT22;789;51.612;7.510;2022-09-16T08:48:18;32.10;1.00
1592;DHT22;789;51.612;7.510;2022-09-16T08:51:00;32.70;1.00
1592;DHT22;789;51.612;7.510;2022-09-16T08:53:33;32.80;1.00
1592;DHT22;789;51.612;7.510;2022-09-16T08:56:05;31.90;1.00
1592;DHT22;789;51.612;7.510;2022-09-16T08:58:38;31.10;1.00
1592;DHT22;789;51.612;7.510;2022-09-16T09:01:15;31.20;1.00
1592;DHT22;789;51.612;7.510;2022-09-16T09:03:47;31.60;1.00
1592;DHT22;789;51.612;7.510;2022-09-16T09:06:25;31.80;1.00
1592;DHT22;789;51.612;7.510;2022-09-16T09:09:04;31.90;1.00
1592;DHT22;789;51.612;7.510;2022-09-16T09:11:42;32.40;1.00
1592;DHT22;789;51.612;7.510;2022-09-16T09:14:22;32.40;1.00
1592;DHT22;789;51.612;7.510;2022-09-16T09:16:58;32.40;1.00
1592;DHT22;789;51.612;7.510;2022-09-16T09:19:37;32.90;1.00
1592;DHT22;789;51.612;7.510;2022-09-16T09:22:17;33.50;1.00
1592;DHT22;789;51.612;7.510;2022-09-16T09:24:55;33.30;1.00
1592;DHT22;789;51.612;7.510;2022-09-16T09:27:30;32.70;1.00
1592;DHT22;789;51.612;7.510;2022-09-16T09:30:06;32.10;1.00
1592;DHT22;789;51.612;7.510;2022-09-16T09:32:48;31.70;1.00
1592;DHT22;789;51.612;7.510;2022-09-16T09:35:24;30.90;1.00
1592;DHT22;789;51.612;7.510;2022-09-16T09:38:09;29.90;1.00
1592;DHT22;789;51.612;7.510;2022-09-16T09:40:46;28.60;1.00
1592;DHT22;789;51.612;7.510;2022-09-16T09:43:18;27.40;1.00
1592;DHT22;789;51.612;7.510;2022-09-16T09:45:53;26.10;1.00
1592;DHT22;789;51.612;7.510;2022-09-16T09:48:25;25.10;1.00
1592;DHT22;789;51.612;7.510;2022-09-16T09:50:58;24.30;1.00
1592;DHT22;789;51.612;7.510;2022-09-16T09:53:30;23.30;1.00
1592;DHT22;789;51.612;7.510;2022-09-16T09:56:13;22.60;1.00
1592;DHT22;789;51.612;7.510;2022-09-16T09:58:45;21.90;1.00
1592;DHT22;789;51.612;7.510;2022-09-16T10:01:14;20.90;1.00
1592;DHT22;789;51.612;7.510;2022-09-16T10:03:42;20.20;1.00
1592;DHT22;789;51.612;7.510;2022-09-16T10:06:10;19.90;1.00
1592;DHT22;789;51.612;7.510;2022-09-16T10:08:45;20.70;1.00
1592;DHT22;789;51.612;7.510;2022-09-16T10:11:17;21.60;1.00
1592;DHT22;789;51.612;7.510;2022-09-16T10:13:48;22.60;1.00
1592;DHT22;789;51.612;7.510;2022-09-16T10:16:19;24.50;1.00
1592;DHT22;789;51.612;7.510;2022-09-16T10:18:55;26.50;1.00
1592;DHT22;789;51.612;7.510;2022-09-16T10:21:23;28.30;1.00
1592;DHT22;789;51.612;7.510;2022-09-16T10:23:54;28.80;1.00
1592;DHT22;789;51.612;7.510;2022-09-16T10:26:23;29.50;1.00
1592;DHT22;789;51.612;7.510;2022-09-16T10:28:59;30.60;1.00
1592;DHT22;789;51.612;7.510;2022-09-16T10:31:29;32.00;1.00
1592;DHT22;789;51.612;7.510;2022-09-16T10:34:00;33.20;1.00
1592;DHT22;789;51.612;7.510;2022-09-16T10:36:31;33.20;1.00
1592;DHT22;789;51.612;7.510;2022-09-16T10:39:00;32.30;1.00
1592;DHT22;789;51.612;7.510;2022-09-16T10:41:29;31.10;1.00
1592;DHT22;789;51.612;7.510;2022-09-16T10:44:02;28.40;1.00
1592;DHT22;789;51.612;7.510;2022-09-16T10:46:29;25.90;1.00
1592;DHT22;789;51.612;7.510;2022-09-16T10:49:00;23.40;1.00
1592;DHT22;789;51.612;7.510;2022-09-16T10:51:34;21.70;1.00
1592;DHT22;789;51.612;7.510;2022-09-16T10:54:02;20.30;1.00
1592;DHT22;789;51.612;7.510;2022-09-16T10:56:32;19.60;1.00
1592;DHT22;789;51.612;7.510;2022-09-16T10:59:04;19.00;1.00
1592;DHT22;789;51.612;7.510;2022-09-16T11:01:40;18.70;1.00
1592;DHT22;789;51.612;7.510;2022-09-16T11:04:37;18.40;1.00
1592;DHT22;789;51.612;7.510;2022-09-16T11:07:19;18.50;1.00
1592;DHT22;789;51.612;7.510;2022-09-16T11:09:53;19.20;1.00
1592;DHT22;789;51.612;7.510;2022-09-16T11:15:21;21.60;1.00
1592;DHT22;789;51.612;7.510;2022-09-16T11:17:59;22.80;1.00
1592;DHT22;789;51.612;7.510;2022-09-16T11:23:39;23.30;1.00
1592;DHT22;789;51.612;7.510;2022-09-16T11:26:12;23.60;1.00
1592;DHT22;789;51.612;7.510;2022-09-16T11:28:53;23.40;1.00
1592;DHT22;789;51.612;7.510;2022-09-16T11:31:33;22.70;1.00
1592;DHT22;789;51.612;7.510;2022-09-16T11:34:06;22.20;1.00
1592;DHT22;789;51.612;7.510;2022-09-16T11:36:43;21.60;1.00
1592;DHT22;789;51.612;7.510;2022-09-16T11:39:33;20.80;1.00
1592;DHT22;789;51.612;7.510;2022-09-16T11:42:11;19.80;1.00
1592;DHT22;789;51.612;7.510;2022-09-16T11:44:46;19.20;1.00
1592;DHT22;789;51.612;7.510;2022-09-16T11:47:32;18.70;1.00
1592;DHT22;789;51.612;7.510;2022-09-16T11:50:13;18.30;1.00
1592;DHT22;789;51.612;7.510;2022-09-16T11:55:46;17.90;1.00
1592;DHT22;789;51.612;7.510;2022-09-16T11:58:26;17.70;1.00
1592;DHT22;789;51.612;7.510;2022-09-16T12:00:59;17.50;1.00
1592;DHT22;789;51.612;7.510;2022-09-16T12:03:31;17.30;1.00
1592;DHT22;789;51.612;7.510;2022-09-16T12:06:04;17.20;1.00
1592;DHT22;789;51.612;7.510;2022-09-16T12:08:41;17.10;1.00
1592;DHT22;789;51.612;7.510;2022-09-16T12:11:19;17.00;1.00
1592;DHT22;789;51.612;7.510;2022-09-16T12:13:48;16.90;1.00
1592;DHT22;789;51.612;7.510;2022-09-16T12:16:22;16.60;1.00
1592;DHT22;789;51.612;7.510;2022-09-16T12:18:52;16.30;1.00
1592;DHT22;789;51.612;7.510;2022-09-16T12:21:24;16.20;1.00
1592;DHT22;789;51.612;7.510;2022-09-16T12:23:56;16.10;1.00
1592;DHT22;789;51.612;7.510;2022-09-16T12:26:28;15.90;1.00
1592;DHT22;789;51.612;7.510;2022-09-16T12:28:59;15.70;1.00
1592;DHT22;789;51.612;7.510;2022-09-16T12:31:32;15.80;1.00
1592;DHT22;789;51.612;7.510;2022-09-16T12:34:03;16.00;1.00
1592;DHT22;789;51.612;7.510;2022-09-16T12:36:33;16.40;1.00
1592;DHT22;789;51.612;7.510;2022-09-16T12:39:02;16.60;1.00
1592;DHT22;789;51.612;7.510;2022-09-16T12:41:55;16.70;1.00
1592;DHT22;789;51.612;7.510;2022-09-16T12:44:45;16.60;1.00
1592;DHT22;789;51.612;7.510;2022-09-16T12:47:42;16.40;1.00
1592;DHT22;789;51.612;7.510;2022-09-16T12:50:47;16.20;1.00
1592;DHT22;789;51.612;7.510;2022-09-16T12:53:43;16.00;1.00
1592;DHT22;789;51.612;7.510;2022-09-16T12:56:23;15.80;1.00
1592;DHT22;789;51.612;7.510;2022-09-16T12:59:12;15.70;1.00
1592;DHT22;789;51.612;7.510;2022-09-16T13:01:43;15.60;1.00
1592;DHT22;789;51.612;7.510;2022-09-16T13:04:15;15.70;1.00
1592;DHT22;789;51.612;7.510;2022-09-16T13:06:46;15.70;1.00
1592;DHT22;789;51.612;7.510;2022-09-16T13:09:20;15.90;1.00
1592;DHT22;789;51.612;7.510;2022-09-16T13:11:54;16.00;1.00
1592;DHT22;789;51.612;7.510;2022-09-16T13:14:24;16.10;1.00
1592;DHT22;789;51.612;7.510;2022-09-16T13:16:55;16.10;1.00
1592;DHT22;789;51.612;7.510;2022-09-16T13:19:36;16.30;1.00
1592;DHT22;789;51.612;7.510;2022-09-16T13:22:25;16.40;1.00
1592;DHT22;789;51.612;7.510;2022-09-16T13:24:57;16.40;1.00
1592;DHT22;789;51.612;7.510;2022-09-16T13:27:31;16.50;1.00
1592;DHT22;789;51.612;7.510;2022-09-16T13:30:12;16.50;1.00
1592;DHT22;789;51.612;7.510;2022-09-16T13:32:42;16.50;1.00
1592;DHT22;789;51.612;7.510;2022-09-16T13:35:22;16.50;1.00
1592;DHT22;789;51.612;7.510;2022-09-16T13:37:50;16.50;1.00
1592;DHT22;789;51.612;7.510;2022-09-16T13:40:19;16.50;1.00
1592;DHT22;789;51.612;7.510;2022-09-16T13:42:47;16.50;1.00
1592;DHT22;789;51.612;7.510;2022-09-16T13:45:29;16.40;1.00
1592;DHT22;789;51.612;7.510;2022-09-16T13:47:56;16.30;1.00
1592;DHT22;789;51.612;7.510;2022-09-16T13:50:25;16.30;1.00
1592;DHT22;789;51.612;7.510;2022-09-16T13:52:52;16.30;1.00
1592;DHT22;789;51.612;7.510;2022-09-16T13:55:23;16.30;1.00
1592;DHT22;789;51.612;7.510;2022-09-16T13:57:57;16.30;1.00
1592;DHT22;789;51.612;7.510;2022-09-16T14:00:29;16.20;1.00
1592;DHT22;789;51.612;7.510;2022-09-16T14:03:22;16.20;1.00
1592;DHT22;789;51.612;7.510;2022-09-16T14:08:58;16.30;1.00
1592;DHT22;789;51.612;7.510;2022-09-16T14:11:32;16.30;1.00
1592;DHT22;789;51.612;7.510;2022-09-16T14:14:05;16.40;1.00
1592;DHT22;789;51.612;7.510;2022-09-16T14:16:34;16.40;1.00
1592;DHT22;789;51.612;7.510;2022-09-16T14:19:06;16.40;1.00
1592;DHT22;789;51.612;7.510;2022-09-16T14:21:34;16.50;1.00
1592;DHT22;789;51.612;7.510;2022-09-16T14:24:10;16.50;1.00
1592;DHT22;789;51.612;7.510;2022-09-16T14:26:49;16.50;1.00
1592;DHT22;789;51.612;7.510;2022-09-16T14:29:17;16.50;1.00
1592;DHT22;789;51.612;7.510;2022-09-16T14:31:44;16.40;1.00
1592;DHT22;789;51.612;7.510;2022-09-16T14:34:15;16.30;1.00
1592;DHT22;789;51.612;7.510;2022-09-16T14:36:42;16.30;1.00
1592;DHT22;789;51.612;7.510;2022-09-16T14:39:13;16.30;1.00
1592;DHT22;789;51.612;7.510;2022-09-16T14:41:46;16.40;1.00
1592;DHT22;789;51.612;7.510;2022-09-16T14:44:23;16.40;1.00
1592;DHT22;789;51.612;7.510;2022-09-16T14:46:54;16.40;1.00
1592;DHT22;789;51.612;7.510;2022-09-16T14:49:23;16.40;1.00
1592;DHT22;789;51.612;7.510;2022-09-16T14:51:53;16.30;1.00
1592;DHT22;789;51.612;7.510;2022-09-16T14:54:23;16.30;1.00
1592;DHT22;789;51.612;7.510;2022-09-16T14:56:55;16.40;1.00
1592;DHT22;789;51.612;7.510;2022-09-16T14:59:25;16.50;1.00
1592;DHT22;789;51.612;7.510;2022-09-16T15:01:54;16.50;1.00
1592;DHT22;789;51.612;7.510;2022-09-16T15:04:24;16.50;1.00
1592;DHT22;789;51.612;7.510;2022-09-16T15:06:54;16.60;1.00
1592;DHT22;789;51.612;7.510;2022-09-16T15:09:27;16.60;1.00
1592;DHT22;789;51.612;7.510;2022-09-16T15:11:58;16.60;1.00
1592;DHT22;789;51.612;7.510;2022-09-16T15:14:27;16.50;1.00
1592;DHT22;789;51.612;7.510;2022-09-16T15:16:56;16.50;1.00
1592;DHT22;789;51.612;7.510;2022-09-16T15:19:26;16.50;1.00
1592;DHT22;789;51.612;7.510;2022-09-16T15:21:54;16.60;1.00
1592;DHT22;789;51.612;7.510;2022-09-16T15:24:24;16.60;1.00
1592;DHT22;789;51.612;7.510;2022-09-16T15:26:53;16.60;1.00
1592;DHT22;789;51.612;7.510;2022-09-16T15:29:30;16.50;1.00
1592;DHT22;789;51.612;7.510;2022-09-16T15:32:17;16.50;1.00
1592;DHT22;789;51.612;7.510;2022-09-16T15:34:45;16.50;1.00
1592;DHT22;789;51.612;7.510;2022-09-16T15:37:29;16.40;1.00
1592;DHT22;789;51.612;7.510;2022-09-16T15:40:16;16.40;1.00
1592;DHT22;789;51.612;7.510;2022-09-16T15:42:45;16.40;1.00
1592;DHT22;789;51.612;7.510;2022-09-16T15:45:16;16.50;1.00
1592;DHT22;789;51.612;7.510;2022-09-16T15:47:57;16.50;1.00
1592;DHT22;789;51.612;7.510;2022-09-16T15:50:27;16.60;1.00
1592;DHT22;789;51.612;7.510;2022-09-16T15:52:57;16.60;1.00
1592;DHT22;789;51.612;7.510;2022-09-16T15:55:29;16.50;1.00
1592;DHT22;789;51.612;7.510;2022-09-16T15:57:59;16.50;1.00
1592;DHT22;789;51.612;7.510;2022-09-16T16:00:54;16.50;1.00
1592;DHT22;789;51.612;7.510;2022-09-16T16:03:23;16.50;1.00
1592;DHT22;789;51.612;7.510;2022-09-16T16:05:51;16.40;1.00
1592;DHT22;789;51.612;7.510;2022-09-16T16:08:37;16.30;1.00
1592;DHT22;789;51.612;7.510;2022-09-16T16:11:06;16.20;1.00
1592;DHT22;789;51.612;7.510;2022-09-16T16:13:33;16.20;1.00
1592;DHT22;789;51.612;7.510;2022-09-16T16:16:01;16.20;1.00
1592;DHT22;789;51.612;7.510;2022-09-16T16:18:30;16.10;1.00
1592;DHT22;789;51.612;7.510;2022-09-16T16:20:58;16.10;1.00
1592;DHT22;789;51.612;7.510;2022-09-16T16:23:26;16.10;1.00
1592;DHT22;789;51.612;7.510;2022-09-16T16:25:52;16.00;1.00
1592;DHT22;789;51.612;7.510;2022-09-16T16:28:19;16.00;1.00
1592;DHT22;789;51.612;7.510;2022-09-16T16:30:46;16.00;1.00
1592;DHT22;789;51.612;7.510;2022-09-16T16:33:14;16.00;1.00
1592;DHT22;789;51.612;7.510;2022-09-16T16:35:41;15.80;1.00
1592;DHT22;789;51.612;7.510;2022-09-16T16:38:08;15.70;1.00
1592;DHT22;789;51.612;7.510;2022-09-16T16:40:35;15.60;1.00
1592;DHT22;789;51.612;7.510;2022-09-16T16:43:01;15.60;1.00
1592;DHT22;789;51.612;7.510;2022-09-16T16:45:30;15.60;1.00
1592;DHT22;789;51.612;7.510;2022-09-16T16:47:57;15.60;1.00
1592;DHT22;789;51.612;7.510;2022-09-16T16:50:26;15.60;1.00
1592;DHT22;789;51.612;7.510;2022-09-16T16:52:52;15.50;1.00
1592;DHT22;789;51.612;7.510;2022-09-16T16:55:20;15.60;1.00
1592;DHT22;789;51.612;7.510;2022-09-16T16:57:47;15.60;1.00
1592;DHT22;789;51.612;7.510;2022-09-16T17:00:14;15.60;1.00
1592;DHT22;789;51.612;7.510;2022-09-16T17:02:42;15.60;1.00
1592;DHT22;789;51.612;7.510;2022-09-16T17:05:10;15.50;1.00
1592;DHT22;789;51.612;7.510;2022-09-16T17:07:38;15.40;1.00
1592;DHT22;789;51.612;7.510;2022-09-16T17:10:05;15.40;1.00
1592;DHT22;789;51.612;7.510;2022-09-16T17:12:32;15.40;1.00
1592;DHT22;789;51.612;7.510;2022-09-16T17:14:59;15.40;1.00
1592;DHT22;789;51.612;7.510;2022-09-16T17:17:25;15.30;1.00